Time;durP1;ratioP1;P1;durP2;ratioP2;P2;SDS_P1;SDS_P2;PMS_P1;PMS_P2;Temp;Humidity;BMP_temperature;BMP_pressure;BME280_temperature;BME280_humidity;BME280_pressure;Samples;Min_cycle;Max_cycle;Signal;HPM_P1;HPM_P2
2021/07/01 00:05:38;;;;;;;11.60;5.50;;;15.00;99.90;;;;;;12391092;28;20623;-40
2021/07/01 00:11:40;;;;;;;11.18;6.68;;;14.90;99.90;;;;;;12383643;28;20038;-41
2021/07/01 00:17:43;;;;;;;13.75;7.35;;;14.90;99.90;;;;;;12391232;28;20100;-41
2021/07/01 00:23:45;;;;;;;12.95;7.72;;;14.90;99.90;;;;;;12392746;28;20305;-40
2021/07/01 00:29:47;;;;;;;11.65;8.45;;;14.80;99.90;;;;;;12391025;28;20050;-39
2021/07/01 00:35:49;;;;;;;15.40;9.57;;;14.80;99.90;;;;;;12392733;28;20038;-39
2021/07/01 00:41:51;;;;;;;17.10;10.63;;;14.70;99.90;;;;;;12391489;28;20144;-39
2021/07/01 00:47:52;;;;;;;15.40;10.20;;;14.70;99.90;;;;;;12391679;28;20122;-39
2021/07/01 00:53:55;;;;;;;18.40;10.70;;;14.60;99.90;;;;;;12394389;28;20914;-40
2021/07/01 00:59:57;;;;;;;18.05;9.88;;;14.60;99.90;;;;;;12388341;28;20066;-39
2021/07/01 01:05:58;;;;;;;15.80;10.65;;;14.60;99.90;;;;;;12392495;28;20046;-39
2021/07/01 01:12:00;;;;;;;15.60;9.90;;;14.60;99.90;;;;;;12392451;28;20505;-40
2021/07/01 01:18:02;;;;;;;19.15;10.93;;;14.40;99.90;;;;;;12389603;28;20137;-40
2021/07/01 01:24:05;;;;;;;17.08;10.20;;;14.50;99.90;;;;;;12386413;28;20050;-40
2021/07/01 01:30:08;;;;;;;22.00;10.52;;;14.40;99.90;;;;;;12387069;28;20750;-40
2021/07/01 01:36:10;;;;;;;17.35;10.07;;;14.40;99.90;;;;;;12389673;28;20047;-40
2021/07/01 01:42:12;;;;;;;18.42;10.05;;;14.50;99.90;;;;;;12393797;28;20092;-40
2021/07/01 01:48:14;;;;;;;16.98;9.93;;;14.40;99.90;;;;;;12401014;28;20064;-40
2021/07/01 01:54:17;;;;;;;18.48;10.60;;;14.30;99.90;;;;;;12396734;28;20556;-40
2021/07/01 02:00:23;;;;;;;18.70;10.20;;;14.20;99.90;;;;;;12399335;28;20096;-40
2021/07/01 02:06:27;;;;;;;18.98;10.40;;;14.10;99.90;;;;;;12399357;28;20085;-40
2021/07/01 02:12:30;;;;;;;17.07;9.70;;;14.10;99.90;;;;;;12401429;28;20104;-40
2021/07/01 02:18:31;;;;;;;17.13;9.55;;;14.10;99.90;;;;;;12394789;28;20076;-41
2021/07/01 02:24:33;;;;;;;20.25;9.93;;;14.00;99.90;;;;;;12398066;28;20132;-41
2021/07/01 02:30:35;;;;;;;19.05;9.77;;;13.90;99.90;;;;;;12390017;28;20742;-39
2021/07/01 02:36:37;;;;;;;23.70;10.90;;;13.90;99.90;;;;;;12389789;28;20073;-40
2021/07/01 02:42:40;;;;;;;18.67;10.60;;;13.90;99.90;;;;;;12395741;28;20599;-40
2021/07/01 02:48:41;;;;;;;17.05;10.30;;;13.80;99.90;;;;;;12394467;28;20099;-40
2021/07/01 02:54:43;;;;;;;25.20;10.68;;;13.90;99.90;;;;;;12394473;28;20046;-39
2021/07/01 03:00:45;;;;;;;17.15;9.63;;;13.80;99.90;;;;;;12388049;28;20050;-40
2021/07/01 03:06:47;;;;;;;18.90;10.27;;;13.80;99.90;;;;;;12391734;28;20062;-40
2021/07/01 03:12:49;;;;;;;22.70;10.85;;;13.80;99.90;;;;;;12386933;28;20635;-40
2021/07/01 03:18:52;;;;;;;24.25;11.65;;;13.70;99.90;;;;;;12383228;28;20112;-41
2021/07/01 03:24:54;;;;;;;17.85;10.70;;;13.50;99.90;;;;;;12392677;28;20050;-40
2021/07/01 03:30:56;;;;;;;19.15;10.50;;;13.50;99.90;;;;;;12389580;28;20152;-40
2021/07/01 03:36:58;;;;;;;22.30;11.43;;;13.40;99.90;;;;;;12392699;28;20176;-40
2021/07/01 03:43:00;;;;;;;22.52;12.77;;;13.50;99.90;;;;;;12392081;28;20142;-40
2021/07/01 03:49:01;;;;;;;21.45;13.88;;;13.40;99.90;;;;;;12390368;28;20050;-39
2021/07/01 03:55:04;;;;;;;27.25;15.50;;;13.40;99.90;;;;;;12388086;28;20053;-40
2021/07/01 04:01:06;;;;;;;25.08;14.50;;;13.30;99.90;;;;;;12396040;28;20104;-39
2021/07/01 04:07:08;;;;;;;23.92;14.25;;;13.40;99.90;;;;;;12387959;28;20612;-40
2021/07/01 04:13:10;;;;;;;20.45;13.80;;;13.40;99.90;;;;;;12381977;28;20100;-40
2021/07/01 04:19:12;;;;;;;25.70;14.18;;;13.50;99.90;;;;;;12394275;28;20054;-40
2021/07/01 04:25:14;;;;;;;26.65;14.10;;;13.50;99.90;;;;;;12384556;28;20046;-39
2021/07/01 04:31:19;;;;;;;26.85;14.25;;;13.60;99.90;;;;;;12389541;28;20623;-41
2021/07/01 04:37:21;;;;;;;24.23;13.25;;;13.50;99.90;;;;;;12392348;28;20050;-40
2021/07/01 04:43:23;;;;;;;21.80;13.77;;;13.60;99.90;;;;;;12395718;28;20125;-40
2021/07/01 04:49:25;;;;;;;24.17;13.05;;;13.60;99.90;;;;;;12386092;28;20050;-40
2021/07/01 04:55:27;;;;;;;20.33;12.30;;;13.50;99.90;;;;;;12387464;28;20104;-40
2021/07/01 05:01:29;;;;;;;19.15;12.07;;;13.60;99.90;;;;;;12391440;28;20572;-39
2021/07/01 05:07:30;;;;;;;25.80;11.82;;;13.60;99.90;;;;;;12386431;28;20065;-39
2021/07/01 05:13:33;;;;;;;16.00;10.68;;;13.80;99.90;;;;;;12379575;28;20112;-41
2021/07/01 05:19:35;;;;;;;22.58;10.73;;;13.80;99.90;;;;;;12388852;28;20120;-40
2021/07/01 05:25:37;;;;;;;15.15;9.10;;;13.80;99.90;;;;;;12379546;28;20131;-42
2021/07/01 05:31:39;;;;;;;15.50;8.75;;;13.80;99.90;;;;;;12389062;28;20532;-40
2021/07/01 05:37:41;;;;;;;15.80;8.05;;;13.60;99.90;;;;;;12384250;28;20054;-42
2021/07/01 05:43:43;;;;;;;15.40;8.27;;;13.70;99.90;;;;;;12390665;28;20695;-42
2021/07/01 05:49:44;;;;;;;11.73;7.38;;;13.60;99.90;;;;;;12381851;28;20430;-41
2021/07/01 05:55:46;;;;;;;15.77;8.10;;;13.80;99.90;;;;;;12385150;28;20477;-39
2021/07/01 06:01:48;;;;;;;16.85;7.25;;;13.70;99.90;;;;;;12382773;28;20574;-40
2021/07/01 06:07:52;;;;;;;14.70;7.28;;;13.70;99.90;;;;;;12385818;28;20050;-39
2021/07/01 06:13:55;;;;;;;10.38;6.68;;;13.70;99.90;;;;;;12379319;28;20050;-39
2021/07/01 06:19:57;;;;;;;9.48;6.97;;;13.70;99.90;;;;;;12388489;28;20466;-40
2021/07/01 06:25:59;;;;;;;12.40;6.43;;;13.70;99.90;;;;;;12384775;28;20050;-40
2021/07/01 06:32:01;;;;;;;12.52;7.13;;;13.60;99.90;;;;;;12381526;28;20053;-41
2021/07/01 06:38:11;;;;;;;12.40;6.30;;;13.70;99.90;;;;;;12397645;28;20050;-39
2021/07/01 06:44:14;;;;;;;10.38;6.32;;;13.80;99.90;;;;;;12398047;28;20041;-40
2021/07/01 06:50:20;;;;;;;9.27;6.40;;;13.70;99.90;;;;;;12389124;28;20046;-39
2021/07/01 06:56:24;;;;;;;10.20;6.10;;;13.70;99.90;;;;;;12390155;28;20037;-40
2021/07/01 07:02:32;;;;;;;12.15;6.65;;;13.70;99.90;;;;;;12385977;28;20116;-40
2021/07/01 07:08:37;;;;;;;10.10;6.10;;;13.70;99.90;;;;;;12388622;28;20158;-39
2021/07/01 07:14:39;;;;;;;13.68;6.70;;;13.80;99.90;;;;;;12390607;28;20096;-40
2021/07/01 07:20:45;;;;;;;9.88;5.85;;;13.80;99.90;;;;;;12393427;28;20424;-39
2021/07/01 07:26:52;;;;;;;9.25;5.70;;;14.00;99.90;;;;;;12392081;28;20057;-39
2021/07/01 07:33:21;;;;;;;10.98;5.30;;;14.00;99.90;;;;;;12388437;28;20136;-39
2021/07/01 07:39:24;;;;;;;12.80;5.25;;;14.00;99.90;;;;;;12398098;28;20556;-40
2021/07/01 07:45:26;;;;;;;10.60;5.15;;;13.90;99.90;;;;;;12394659;28;20046;-40
2021/07/01 07:51:29;;;;;;;7.25;4.93;;;14.00;99.90;;;;;;12392815;28;20055;-40
2021/07/01 07:57:33;;;;;;;11.03;5.17;;;13.90;99.90;;;;;;12390242;28;20109;-42
2021/07/01 08:03:39;;;;;;;;;;;14.00;99.90;;;;;;12383960;28;20061;-39
2021/07/01 08:09:41;;;;;;;8.95;5.07;;;14.10;99.90;;;;;;12387853;28;20769;-39
2021/07/01 08:15:43;;;;;;;9.40;4.75;;;14.20;99.90;;;;;;12389444;28;20054;-41
2021/07/01 08:21:47;;;;;;;8.52;5.50;;;14.20;99.90;;;;;;12384135;28;20076;-41
2021/07/01 08:27:51;;;;;;;9.40;4.77;;;14.30;99.90;;;;;;12393808;28;20173;-41
2021/07/01 08:33:52;;;;;;;10.83;5.37;;;14.30;99.90;;;;;;12390650;28;20123;-40
2021/07/01 08:39:58;;;;;;;8.77;5.25;;;14.20;99.90;;;;;;12387212;28;20053;-40
2021/07/01 08:46:14;;;;;;;8.02;5.50;;;14.10;99.90;;;;;;12388126;28;20061;-40
2021/07/01 08:52:21;;;;;;;9.23;5.78;;;14.20;99.90;;;;;;12384676;28;20050;-40
2021/07/01 08:58:24;;;;;;;7.65;5.20;;;14.00;99.90;;;;;;12388106;28;20100;-40
2021/07/01 09:04:29;;;;;;;7.88;4.72;;;14.20;99.90;;;;;;12387624;28;20054;-40
2021/07/01 09:10:33;;;;;;;8.05;4.97;;;14.20;99.90;;;;;;12382527;28;21084;-39
2021/07/01 09:16:37;;;;;;;5.70;4.20;;;14.20;99.90;;;;;;12395345;28;20526;-40
2021/07/01 09:22:40;;;;;;;5.85;3.60;;;14.20;99.90;;;;;;12380378;28;20246;-40
2021/07/01 09:28:42;;;;;;;4.55;3.30;;;14.20;99.90;;;;;;12392028;28;20052;-40
2021/07/01 09:34:47;;;;;;;7.03;3.13;;;14.30;99.90;;;;;;12379810;28;20053;-40
2021/07/01 09:40:49;;;;;;;5.28;3.40;;;14.30;99.90;;;;;;12386501;28;20096;-40
2021/07/01 09:46:51;;;;;;;4.05;2.97;;;14.20;99.90;;;;;;12388247;28;20050;-40
2021/07/01 09:52:56;;;;;;;4.65;2.65;;;14.20;99.90;;;;;;12391207;28;20455;-39
2021/07/01 09:59:01;;;;;;;4.95;2.63;;;14.20;99.90;;;;;;12387169;28;20116;-39
2021/07/01 10:05:06;;;;;;;3.15;2.30;;;14.10;99.90;;;;;;12395956;28;20097;-40
2021/07/01 10:11:08;;;;;;;3.83;2.40;;;14.30;99.90;;;;;;12402586;28;20050;-41
2021/07/01 10:17:13;;;;;;;2.60;1.85;;;14.30;99.90;;;;;;12394937;28;20058;-39
2021/07/01 10:23:21;;;;;;;2.42;1.90;;;14.30;99.90;;;;;;12394646;28;20149;-40
2021/07/01 10:29:38;;;;;;;2.97;1.80;;;14.20;99.90;;;;;;12396276;28;20387;-39
2021/07/01 10:35:40;;;;;;;3.65;1.73;;;14.20;99.90;;;;;;12388362;28;20111;-40
2021/07/01 10:41:42;;;;;;;1.83;1.33;;;14.30;99.90;;;;;;12391372;28;20051;-40
2021/07/01 10:47:46;;;;;;;2.25;1.08;;;14.40;99.90;;;;;;12397562;28;20046;-42
2021/07/01 10:53:47;;;;;;;2.55;1.30;;;14.40;99.90;;;;;;12396698;28;20745;-39
2021/07/01 10:59:52;;;;;;;2.03;1.30;;;14.40;99.90;;;;;;12394007;28;20470;-39
2021/07/01 11:05:56;;;;;;;1.48;1.00;;;14.40;99.90;;;;;;12405089;28;20042;-39
2021/07/01 11:12:02;;;;;;;1.50;1.00;;;14.30;99.90;;;;;;12389092;28;20045;-40
2021/07/01 11:18:14;;;;;;;0.98;0.70;;;14.40;99.90;;;;;;12381853;28;20058;-41
2021/07/01 11:24:19;;;;;;;1.17;0.70;;;14.50;99.90;;;;;;12379562;28;20104;-40
2021/07/01 11:30:25;;;;;;;2.92;0.85;;;14.40;99.90;;;;;;12385606;28;20047;-41
2021/07/01 11:36:28;;;;;;;1.00;0.70;;;14.50;99.90;;;;;;12391681;28;20054;-40
2021/07/01 11:42:30;;;;;;;1.42;0.90;;;14.50;99.90;;;;;;12387714;28;20043;-40
2021/07/01 11:48:34;;;;;;;1.55;0.85;;;14.30;99.90;;;;;;12387597;28;20042;-40
2021/07/01 11:54:38;;;;;;;2.93;0.97;;;14.30;99.90;;;;;;12393406;28;20053;-41
2021/07/01 12:00:41;;;;;;;3.78;1.05;;;14.40;99.90;;;;;;12383169;28;20381;-39
2021/07/01 12:07:07;;;;;;;2.60;0.90;;;14.50;99.90;;;;;;12387241;28;20084;-40
2021/07/01 12:13:31;;;;;;;3.22;1.20;;;14.40;99.90;;;;;;12388452;28;20100;-40
2021/07/01 12:19:48;;;;;;;2.13;0.83;;;14.50;99.90;;;;;;12388255;28;20085;-39
2021/07/01 12:25:56;;;;;;;1.17;0.80;;;14.70;99.90;;;;;;12384737;28;20645;-41
2021/07/01 12:32:23;;;;;;;4.10;1.10;;;14.60;99.90;;;;;;12386260;28;20061;-40
2021/07/01 12:38:25;;;;;;;1.02;0.70;;;14.50;99.90;;;;;;12391357;28;20092;-41
2021/07/01 12:44:36;;;;;;;3.00;1.20;;;14.60;99.90;;;;;;12389585;28;20627;-40
2021/07/01 12:50:38;;;;;;;1.70;0.70;;;14.60;99.90;;;;;;12380011;28;20038;-40
2021/07/01 12:56:39;;;;;;;2.05;0.63;;;14.50;99.90;;;;;;12392934;28;20102;-41
2021/07/01 13:02:56;;;;;;;4.65;0.80;;;14.50;99.90;;;;;;12390107;28;20045;-41
2021/07/01 13:08:57;;;;;;;1.83;0.85;;;14.60;99.90;;;;;;12380824;28;20043;-41
2021/07/01 13:15:02;;;;;;;3.40;0.80;;;14.50;99.90;;;;;;12388634;28;20057;-41
2021/07/01 13:21:10;;;;;;;;;;;14.60;99.90;;;;;;12386940;28;20050;-40
2021/07/01 13:27:12;;;;;;;3.35;1.00;;;14.50;99.90;;;;;;12388730;28;19929;-40
2021/07/01 13:33:15;;;;;;;3.42;1.10;;;14.60;99.90;;;;;;12390701;28;20042;-41
2021/07/01 13:39:30;;;;;;;1.98;1.30;;;14.60;99.90;;;;;;12392969;28;20508;-42
2021/07/01 13:45:33;;;;;;;3.33;1.50;;;14.60;99.90;;;;;;12403370;28;20050;-40
2021/07/01 13:51:35;;;;;;;3.38;1.60;;;14.60;99.90;;;;;;12400528;28;20116;-41
2021/07/01 13:57:36;;;;;;;2.85;1.70;;;14.70;99.90;;;;;;12395863;28;20084;-40
2021/07/01 14:03:40;;;;;;;3.95;2.08;;;14.50;99.90;;;;;;12397958;28;20415;-40
2021/07/01 14:09:42;;;;;;;3.40;2.17;;;14.60;99.90;;;;;;12397439;28;20411;-40
2021/07/01 14:15:44;;;;;;;4.68;2.47;;;14.70;99.90;;;;;;12389896;28;20453;-40
2021/07/01 14:21:51;;;;;;;5.80;3.05;;;14.70;99.90;;;;;;12393800;28;20050;-40
2021/07/01 14:28:11;;;;;;;8.68;3.50;;;14.70;99.90;;;;;;12400064;28;20146;-40
2021/07/01 14:34:13;;;;;;;5.70;3.53;;;14.80;99.90;;;;;;12398113;28;20056;-41
2021/07/01 14:40:14;;;;;;;8.15;4.40;;;14.80;99.90;;;;;;12393767;28;20466;-41
2021/07/01 14:46:39;;;;;;;11.23;5.18;;;14.80;99.90;;;;;;12393072;28;20112;-40
2021/07/01 14:52:41;;;;;;;14.02;6.03;;;14.80;99.90;;;;;;12395371;28;20046;-41
2021/07/01 14:58:51;;;;;;;11.77;6.40;;;14.90;99.90;;;;;;12385908;28;20058;-40
2021/07/01 15:05:11;;;;;;;12.85;7.38;;;14.90;99.90;;;;;;12395880;28;20089;-40
2021/07/01 15:11:26;;;;;;;13.25;6.68;;;14.90;99.90;;;;;;12390510;28;20042;-42
2021/07/01 15:17:34;;;;;;;12.10;6.70;;;15.00;99.90;;;;;;12393613;28;20046;-41
2021/07/01 15:23:36;;;;;;;11.57;6.80;;;15.10;99.90;;;;;;12392133;28;20054;-42
2021/07/01 15:29:38;;;;;;;15.30;7.95;;;15.20;99.90;;;;;;12391544;28;20054;-40
2021/07/01 15:35:40;;;;;;;14.43;8.40;;;15.20;99.90;;;;;;12388713;28;20054;-40
2021/07/01 15:41:42;;;;;;;25.65;10.85;;;15.20;99.90;;;;;;12390289;28;20046;-41
2021/07/01 15:47:52;;;;;;;21.70;10.75;;;15.20;99.90;;;;;;12389084;28;20550;-40
2021/07/01 15:53:54;;;;;;;28.80;13.65;;;15.20;99.90;;;;;;12389629;28;20050;-40
2021/07/01 15:59:56;;;;;;;30.90;14.68;;;15.30;99.90;;;;;;12399201;28;20061;-41
2021/07/01 16:05:59;;;;;;;33.03;16.48;;;15.40;99.90;;;;;;12390739;28;20053;-42
2021/07/01 16:12:01;;;;;;;34.00;16.52;;;15.40;99.90;;;;;;12389461;28;20058;-42
2021/07/01 16:18:05;;;;;;;39.22;16.35;;;15.40;99.90;;;;;;12391973;28;20558;-40
2021/07/01 16:24:11;;;;;;;42.05;18.65;;;15.40;99.90;;;;;;12388639;28;22146;-40
2021/07/01 16:30:28;;;;;;;40.20;19.15;;;15.30;99.90;;;;;;12391479;28;20069;-41
2021/07/01 16:36:31;;;;;;;47.63;19.52;;;15.20;99.90;;;;;;12384769;28;20057;-42
2021/07/01 16:42:33;;;;;;;46.20;20.17;;;15.20;99.90;;;;;;12387990;28;20077;-42
2021/07/01 16:48:38;;;;;;;41.55;20.38;;;15.30;99.90;;;;;;12393759;28;20112;-41
2021/07/01 16:54:40;;;;;;;;;;;15.30;99.90;;;;;;12385429;28;20046;-41
2021/07/01 17:00:42;;;;;;;54.70;22.88;;;15.30;99.90;;;;;;12386541;28;19975;-41
2021/07/01 17:06:45;;;;;;;48.28;22.85;;;15.30;99.90;;;;;;12387494;28;20046;-41
2021/07/01 17:12:48;;;;;;;48.00;23.37;;;15.30;99.90;;;;;;12380941;28;20038;-42
2021/07/01 17:18:54;;;;;;;50.97;22.15;;;15.20;99.90;;;;;;12378305;28;20054;-40
2021/07/01 17:24:55;;;;;;;42.55;21.35;;;15.20;99.90;;;;;;12383317;28;20104;-41
2021/07/01 17:31:04;;;;;;;46.15;21.30;;;15.30;99.90;;;;;;12384221;28;20471;-41
2021/07/01 17:37:07;;;;;;;48.63;22.83;;;15.40;99.90;;;;;;12386931;28;20658;-41
2021/07/01 17:43:11;;;;;;;48.67;22.85;;;15.30;99.90;;;;;;12380782;28;20050;-42
2021/07/01 17:49:15;;;;;;;36.37;19.40;;;15.30;99.90;;;;;;12382230;28;20455;-42
2021/07/01 17:55:17;;;;;;;;;;;15.20;99.90;;;;;;12382061;28;20382;-40
2021/07/01 18:01:19;;;;;;;40.85;17.77;;;15.10;99.90;;;;;;12385222;28;19929;-44
2021/07/01 18:07:21;;;;;;;36.83;18.10;;;15.10;99.90;;;;;;12390792;28;20085;-43
2021/07/01 18:13:23;;;;;;;44.97;20.80;;;15.10;99.90;;;;;;12384463;28;20756;-42
2021/07/01 18:19:25;;;;;;;53.38;23.35;;;15.10;99.90;;;;;;12381464;28;20058;-40
2021/07/01 18:25:26;;;;;;;62.50;26.27;;;15.00;99.90;;;;;;12382007;28;20259;-41
2021/07/01 18:31:28;;;;;;;71.50;26.25;;;15.00;99.90;;;;;;12397872;28;20379;-40
2021/07/01 18:37:30;;;;;;;62.00;28.20;;;15.00;99.90;;;;;;12395048;28;20073;-40
2021/07/01 18:43:34;;;;;;;69.90;27.83;;;14.90;99.90;;;;;;12389923;28;22107;-40
2021/07/01 18:49:36;;;;;;;57.05;27.00;;;15.00;99.90;;;;;;12394337;28;20050;-41
2021/07/01 18:55:38;;;;;;;67.40;29.00;;;15.00;99.90;;;;;;12397109;28;20050;-42
2021/07/01 19:01:50;;;;;;;69.05;28.85;;;15.00;99.90;;;;;;12386057;28;20053;-41
2021/07/01 19:07:52;;;;;;;70.35;28.98;;;14.90;99.90;;;;;;12392215;28;20689;-41
2021/07/01 19:13:59;;;;;;;83.30;30.95;;;14.90;99.90;;;;;;12390040;28;20479;-41
2021/07/01 19:20:01;;;;;;;72.47;30.27;;;14.90;99.90;;;;;;12384849;28;20092;-40
2021/07/01 19:26:03;;;;;;;77.53;30.17;;;14.90;99.90;;;;;;12391952;28;20058;-41
2021/07/01 19:32:05;;;;;;;82.78;29.40;;;14.90;99.90;;;;;;12391886;28;20078;-40
2021/07/01 19:38:08;;;;;;;74.28;28.30;;;14.80;99.90;;;;;;12389677;28;20061;-41
2021/07/01 19:44:10;;;;;;;81.78;29.92;;;14.90;99.90;;;;;;12395578;28;20112;-41
2021/07/01 19:50:12;;;;;;;72.65;32.17;;;14.80;99.90;;;;;;12395440;28;20117;-40
2021/07/01 19:56:29;;;;;;;81.80;31.85;;;14.80;99.90;;;;;;12390846;28;20058;-42
2021/07/01 20:02:31;;;;;;;87.18;30.45;;;14.80;99.90;;;;;;12391270;28;20391;-40
2021/07/01 20:08:33;;;;;;;84.07;33.33;;;14.80;99.90;;;;;;12393163;28;20038;-40
2021/07/01 20:14:35;;;;;;;82.93;31.90;;;14.70;99.90;;;;;;12396136;28;20466;-40
2021/07/01 20:20:37;;;;;;;91.53;34.30;;;14.80;99.90;;;;;;12383941;28;20050;-40
2021/07/01 20:26:39;;;;;;;99.45;33.17;;;14.80;99.90;;;;;;12387397;28;20101;-42
2021/07/01 20:32:42;;;;;;;86.40;32.38;;;14.80;99.90;;;;;;12384660;28;20073;-42
2021/07/01 20:38:43;;;;;;;84.63;32.67;;;14.70;99.90;;;;;;12386883;28;20054;-40
2021/07/01 20:44:45;;;;;;;89.65;32.30;;;14.70;99.90;;;;;;12394947;28;20042;-40
2021/07/01 20:50:47;;;;;;;78.10;32.25;;;14.80;99.90;;;;;;12387688;28;20095;-40
2021/07/01 20:56:53;;;;;;;84.18;30.83;;;14.80;99.90;;;;;;12393463;28;20777;-40
2021/07/01 21:02:55;;;;;;;75.00;30.15;;;14.80;99.90;;;;;;12389474;28;20041;-42
2021/07/01 21:09:01;;;;;;;70.97;30.13;;;14.90;99.90;;;;;;12384852;28;20041;-41
2021/07/01 21:15:05;;;;;;;73.68;27.27;;;14.90;99.90;;;;;;12372357;28;20650;-43
2021/07/01 21:21:07;;;;;;;71.40;29.05;;;14.90;99.90;;;;;;12385114;28;20054;-41
2021/07/01 21:27:11;;;;;;;60.20;26.80;;;14.80;99.90;;;;;;12380806;28;20092;-41
2021/07/01 21:33:13;;;;;;;75.70;28.27;;;14.90;99.90;;;;;;12386924;28;20051;-40
2021/07/01 21:39:15;;;;;;;54.28;24.58;;;14.90;99.90;;;;;;12394550;28;20054;-40
2021/07/01 21:45:18;;;;;;;70.70;27.15;;;14.90;99.90;;;;;;12390289;28;20042;-42
2021/07/01 21:51:21;;;;;;;59.42;26.13;;;14.90;99.90;;;;;;12378563;28;20053;-41
2021/07/01 21:57:23;;;;;;;73.28;26.50;;;14.90;99.90;;;;;;12384511;28;20123;-41
2021/07/01 22:03:26;;;;;;;55.10;25.27;;;14.90;99.90;;;;;;12390382;28;20050;-41
2021/07/01 22:09:28;;;;;;;62.15;25.33;;;14.90;99.90;;;;;;12392409;28;20103;-41
2021/07/01 22:21:52;;;;;;;59.33;24.65;;;14.80;99.90;;;;;;12391733;28;20054;-41
2021/07/01 22:27:55;;;;;;;61.85;24.20;;;14.80;99.90;;;;;;12393014;28;20579;-41
2021/07/01 22:33:58;;;;;;;55.33;23.95;;;14.90;99.90;;;;;;12394764;28;20087;-41
2021/07/01 22:40:00;;;;;;;48.00;22.85;;;14.90;99.90;;;;;;12395550;28;20061;-41
2021/07/01 22:46:01;;;;;;;57.17;23.05;;;14.90;99.90;;;;;;12401692;28;20061;-40
2021/07/01 22:52:05;;;;;;;53.45;22.35;;;14.90;99.90;;;;;;12393111;28;20465;-42
2021/07/01 22:58:07;;;;;;;53.42;23.02;;;14.90;99.90;;;;;;12403007;28;20054;-43
2021/07/01 23:04:08;;;;;;;51.22;22.52;;;15.00;99.90;;;;;;12397368;28;21173;-41
2021/07/01 23:10:11;;;;;;;58.80;22.38;;;15.00;99.90;;;;;;12397752;28;20046;-42
2021/07/01 23:16:13;;;;;;;56.55;21.63;;;14.90;99.90;;;;;;12393349;28;20058;-41
2021/07/01 23:22:15;;;;;;;54.35;22.73;;;14.80;99.90;;;;;;12393324;28;20066;-41
2021/07/01 23:28:17;;;;;;;56.30;23.45;;;14.80;99.90;;;;;;12394528;28;20062;-40
2021/07/01 23:34:18;;;;;;;51.15;22.38;;;14.80;99.90;;;;;;12390783;28;20053;-41
2021/07/01 23:40:20;;;;;;;47.30;21.55;;;14.80;99.90;;;;;;12398446;28;20054;-41
2021/07/01 23:46:22;;;;;;;52.20;20.05;;;14.90;99.90;;;;;;12394193;28;20047;-41
2021/07/01 23:52:24;;;;;;;45.38;20.67;;;14.90;99.90;;;;;;12381976;28;20062;-41
2021/07/01 23:58:26;;;;;;;51.38;20.20;;;14.90;99.90;;;;;;12394207;28;20103;-41
